createdAt,value
2022-11-21T00:05:56.640Z,13.15
2022-11-21T00:16:18.091Z,12.27
2022-11-21T00:26:39.733Z,13.10
2022-11-21T00:37:01.195Z,13.10
2022-11-21T00:47:22.692Z,12.40
2022-11-21T00:57:44.131Z,12.47
2022-11-21T01:08:05.727Z,12.27
2022-11-21T01:18:27.167Z,12.53
2022-11-21T01:28:48.991Z,12.67
2022-11-21T01:39:11.579Z,12.07
2022-11-21T01:49:33.272Z,12.65
2022-11-21T01:59:54.675Z,11.95
2022-11-21T02:10:16.970Z,12.43
2022-11-21T02:20:41.690Z,11.68
2022-11-21T02:31:03.193Z,11.95
2022-11-21T02:41:28.453Z,11.87
2022-11-21T02:51:49.941Z,12.90
2022-11-21T03:02:11.403Z,12.03
2022-11-21T03:12:32.865Z,11.80
2022-11-21T03:22:54.441Z,12.30
2022-11-21T03:33:15.891Z,11.95
2022-11-21T03:43:37.346Z,11.50
2022-11-21T03:53:59.458Z,12.37
2022-11-21T04:04:20.908Z,11.68
2022-11-21T04:14:42.362Z,12.57
2022-11-21T04:25:03.976Z,11.70
2022-11-21T04:35:26.735Z,11.82
2022-11-21T04:45:48.187Z,12.07
2022-11-21T04:56:09.718Z,12.07
2022-11-21T05:06:31.186Z,12.30
2022-11-21T05:16:53.524Z,11.70
2022-11-21T05:27:15.001Z,12.60
2022-11-21T05:37:36.542Z,11.83
2022-11-21T05:47:57.993Z,12.85
2022-11-21T05:58:19.502Z,11.20
2022-11-21T06:08:43.946Z,12.00
2022-11-21T06:19:05.537Z,12.02
2022-11-21T06:29:26.977Z,12.45
2022-11-21T06:39:48.770Z,12.20
2022-11-21T06:50:10.493Z,12.95
2022-11-21T07:00:31.951Z,12.15
2022-11-21T07:11:22.919Z,12.37
2022-11-21T07:21:35.048Z,12.38
2022-11-21T07:31:56.603Z,13.20
2022-11-21T07:42:18.079Z,13.13
2022-11-21T07:52:39.558Z,12.90
2022-11-21T08:03:01.471Z,13.47
2022-11-21T08:23:44.290Z,14.10
2022-11-21T08:34:09.120Z,14.70
2022-11-21T08:44:35.311Z,14.25
2022-11-21T08:54:57.148Z,13.20
2022-11-21T09:05:18.634Z,14.40
2022-11-21T09:15:58.690Z,14.70
2022-11-21T09:26:20.146Z,13.85
2022-11-21T09:36:41.695Z,14.47
2022-11-21T09:47:29.352Z,14.43
2022-11-21T09:57:51.292Z,14.60
2022-11-21T10:19:26.016Z,13.63
2022-11-21T10:29:54.960Z,12.50
2022-11-21T10:40:36.923Z,12.98
2022-11-21T10:51:01.503Z,13.07
2022-11-21T11:01:34.838Z,9.45
2022-11-21T11:12:54.166Z,8.95
2022-11-21T11:23:17.027Z,7.20
2022-11-21T11:33:39.674Z,6.18
2022-11-21T11:44:33.022Z,5.88
2022-11-21T11:55:03.424Z,5.55
2022-11-21T12:05:26.625Z,5.25
2022-11-21T12:15:52.647Z,4.80
2022-11-21T12:26:20.256Z,4.85
2022-11-21T12:37:08.625Z,6.10
2022-11-21T12:48:01.224Z,7.95
2022-11-21T12:58:36.736Z,6.70
2022-11-21T13:09:02.389Z,7.28
2022-11-21T13:19:45.275Z,7.75
2022-11-21T13:30:06.698Z,7.63
2022-11-21T13:40:28.408Z,7.60
2022-11-21T13:51:08.781Z,6.75
2022-11-21T14:01:39.852Z,7.35
2022-11-21T14:12:03.049Z,6.77
2022-11-21T14:22:33.591Z,6.55
2022-11-21T14:32:57.179Z,6.47
2022-11-21T14:43:30.728Z,6.43
2022-11-21T14:53:53.674Z,7.28
2022-11-21T15:04:16.350Z,6.95
2022-11-21T15:15:02.357Z,7.45
2022-11-21T15:25:27.565Z,7.03
2022-11-21T15:35:56.741Z,7.35
2022-11-21T15:46:27.306Z,8.13
2022-11-21T15:56:49.173Z,8.48
2022-11-21T16:07:10.837Z,8.45
2022-11-21T16:17:32.386Z,8.13
2022-11-21T16:27:53.852Z,8.17
2022-11-21T16:38:15.437Z,8.53
2022-11-21T16:48:36.898Z,7.23
2022-11-21T16:58:58.379Z,7.60
2022-11-21T17:09:19.856Z,8.33
2022-11-21T17:19:41.514Z,8.10
2022-11-21T17:30:04.439Z,8.73
2022-11-21T17:40:25.886Z,8.85
2022-11-21T17:50:47.371Z,8.53
2022-11-21T18:01:13.759Z,6.97
2022-11-21T18:11:39.839Z,7.93
2022-11-21T18:22:01.847Z,7.90
2022-11-21T18:32:23.294Z,8.97
2022-11-21T18:42:44.804Z,8.47
2022-11-21T18:53:06.267Z,8.57
2022-11-21T19:03:28.051Z,8.90
2022-11-21T19:13:50.208Z,8.95
2022-11-21T19:24:13.724Z,9.75
2022-11-21T19:34:35.387Z,9.82
2022-11-21T19:44:58.246Z,9.57
2022-11-21T19:55:19.784Z,10.50
2022-11-21T20:05:41.304Z,9.87
2022-11-21T20:16:02.794Z,11.43
2022-11-21T20:26:25.366Z,11.83
2022-11-21T20:36:47.013Z,12.10
2022-11-21T20:47:09.151Z,11.88
2022-11-21T20:57:30.858Z,12.30
2022-11-21T21:07:52.998Z,11.65
2022-11-21T21:18:14.480Z,12.73
2022-11-21T21:28:36.021Z,13.20
2022-11-21T21:38:58.940Z,12.23
2022-11-21T21:49:20.371Z,11.68
2022-11-21T21:59:41.821Z,12.93
2022-11-21T22:10:03.641Z,12.23
2022-11-21T22:20:25.114Z,12.50
2022-11-21T22:30:57.361Z,12.57
2022-11-21T22:41:21.783Z,12.30
2022-11-21T22:51:43.656Z,13.40
2022-11-21T23:02:05.340Z,13.00
2022-11-21T23:12:27.216Z,13.02
2022-11-21T23:22:48.684Z,14.68
2022-11-21T23:33:10.787Z,14.33
2022-11-21T23:43:32.289Z,15.10
2022-11-21T23:53:53.773Z,15.07
